sensor_id;sensor_type;location;lat;lon;timestamp;temperature;humidity
23100;DHT22;53791;50.696;4.396;2023-07-13T00:02:00;16.40;99.90
23100;DHT22;53791;50.696;4.396;2023-07-13T00:04:28;16.40;99.90
23100;DHT22;53791;50.696;4.396;2023-07-13T00:06:55;16.40;99.90
23100;DHT22;53791;50.696;4.396;2023-07-13T00:09:24;16.30;99.90
23100;DHT22;53791;50.696;4.396;2023-07-13T00:11:53;16.30;99.90
23100;DHT22;53791;50.696;4.396;2023-07-13T00:14:22;16.40;99.90
23100;DHT22;53791;50.696;4.396;2023-07-13T00:16:50;16.30;99.90
23100;DHT22;53791;50.696;4.396;2023-07-13T00:19:17;16.20;99.90
23100;DHT22;53791;50.696;4.396;2023-07-13T00:21:45;16.30;99.90
23100;DHT22;53791;50.696;4.396;2023-07-13T00:24:16;16.30;99.90
23100;DHT22;53791;50.696;4.396;2023-07-13T00:26:45;16.40;99.90
23100;DHT22;53791;50.696;4.396;2023-07-13T00:29:12;16.40;99.90
23100;DHT22;53791;50.696;4.396;2023-07-13T00:31:40;16.40;99.90
23100;DHT22;53791;50.696;4.396;2023-07-13T00:34:08;16.40;99.90
23100;DHT22;53791;50.696;4.396;2023-07-13T00:36:35;16.50;99.90
23100;DHT22;53791;50.696;4.396;2023-07-13T00:39:03;16.50;99.90
23100;DHT22;53791;50.696;4.396;2023-07-13T00:41:31;16.40;99.90
23100;DHT22;53791;50.696;4.396;2023-07-13T00:43:59;16.40;99.90
23100;DHT22;53791;50.696;4.396;2023-07-13T00:46:29;16.40;99.90
23100;DHT22;53791;50.696;4.396;2023-07-13T00:49:00;16.40;99.90
23100;DHT22;53791;50.696;4.396;2023-07-13T00:51:48;16.40;99.90
23100;DHT22;53791;50.696;4.396;2023-07-13T00:54:22;16.30;99.90
23100;DHT22;53791;50.696;4.396;2023-07-13T00:56:51;16.30;99.90
23100;DHT22;53791;50.696;4.396;2023-07-13T00:59:21;16.30;99.90
23100;DHT22;53791;50.696;4.396;2023-07-13T01:01:49;16.30;99.90
23100;DHT22;53791;50.696;4.396;2023-07-13T01:04:17;16.30;99.90
23100;DHT22;53791;50.696;4.396;2023-07-13T01:06:46;16.20;99.90
23100;DHT22;53791;50.696;4.396;2023-07-13T01:09:14;16.20;99.90
23100;DHT22;53791;50.696;4.396;2023-07-13T01:11:42;16.20;99.90
23100;DHT22;53791;50.696;4.396;2023-07-13T01:14:11;16.20;99.90
23100;DHT22;53791;50.696;4.396;2023-07-13T01:16:41;16.20;99.90
23100;DHT22;53791;50.696;4.396;2023-07-13T01:19:37;16.20;99.90
23100;DHT22;53791;50.696;4.396;2023-07-13T01:21:43;16.10;99.90
23100;DHT22;53791;50.696;4.396;2023-07-13T01:24:11;16.10;99.90
23100;DHT22;53791;50.696;4.396;2023-07-13T01:26:38;16.10;99.90
23100;DHT22;53791;50.696;4.396;2023-07-13T01:29:06;16.10;99.90
23100;DHT22;53791;50.696;4.396;2023-07-13T01:31:34;16.10;99.90
23100;DHT22;53791;50.696;4.396;2023-07-13T01:34:01;16.10;99.90
23100;DHT22;53791;50.696;4.396;2023-07-13T01:36:29;16.10;99.90
23100;DHT22;53791;50.696;4.396;2023-07-13T01:38:56;16.00;99.90
23100;DHT22;53791;50.696;4.396;2023-07-13T01:41:24;16.10;99.90
23100;DHT22;53791;50.696;4.396;2023-07-13T01:43:53;16.00;99.90
23100;DHT22;53791;50.696;4.396;2023-07-13T01:46:20;16.00;99.90
23100;DHT22;53791;50.696;4.396;2023-07-13T01:48:48;16.00;99.90
23100;DHT22;53791;50.696;4.396;2023-07-13T01:51:16;16.00;99.90
23100;DHT22;53791;50.696;4.396;2023-07-13T01:53:44;15.90;99.90
23100;DHT22;53791;50.696;4.396;2023-07-13T01:56:12;16.00;99.90
23100;DHT22;53791;50.696;4.396;2023-07-13T01:58:39;15.90;99.90
23100;DHT22;53791;50.696;4.396;2023-07-13T02:01:07;16.00;99.90
23100;DHT22;53791;50.696;4.396;2023-07-13T02:03:35;15.90;99.90
23100;DHT22;53791;50.696;4.396;2023-07-13T02:06:02;15.90;99.90
23100;DHT22;53791;50.696;4.396;2023-07-13T02:08:31;16.00;99.90
23100;DHT22;53791;50.696;4.396;2023-07-13T02:10:59;16.00;99.90
23100;DHT22;53791;50.696;4.396;2023-07-13T02:13:27;15.90;99.90
23100;DHT22;53791;50.696;4.396;2023-07-13T02:15:55;15.90;99.90
23100;DHT22;53791;50.696;4.396;2023-07-13T02:18:22;15.80;99.90
23100;DHT22;53791;50.696;4.396;2023-07-13T02:20:50;15.80;99.90
23100;DHT22;53791;50.696;4.396;2023-07-13T02:23:17;15.70;99.90
23100;DHT22;53791;50.696;4.396;2023-07-13T02:25:45;15.70;99.90
23100;DHT22;53791;50.696;4.396;2023-07-13T02:28:13;15.70;99.90
23100;DHT22;53791;50.696;4.396;2023-07-13T02:30:40;15.70;99.90
23100;DHT22;53791;50.696;4.396;2023-07-13T02:33:08;15.70;99.90
23100;DHT22;53791;50.696;4.396;2023-07-13T02:35:35;15.60;99.90
23100;DHT22;53791;50.696;4.396;2023-07-13T02:38:03;15.50;99.90
23100;DHT22;53791;50.696;4.396;2023-07-13T02:40:30;15.40;99.90
23100;DHT22;53791;50.696;4.396;2023-07-13T02:43:00;15.40;99.90
23100;DHT22;53791;50.696;4.396;2023-07-13T02:45:27;15.40;99.90
23100;DHT22;53791;50.696;4.396;2023-07-13T02:47:55;15.50;99.90
23100;DHT22;53791;50.696;4.396;2023-07-13T02:50:23;15.40;99.90
23100;DHT22;53791;50.696;4.396;2023-07-13T02:52:50;15.50;99.90
23100;DHT22;53791;50.696;4.396;2023-07-13T02:55:18;15.50;99.90
23100;DHT22;53791;50.696;4.396;2023-07-13T02:57:45;15.40;99.90
23100;DHT22;53791;50.696;4.396;2023-07-13T03:00:13;15.30;99.90
23100;DHT22;53791;50.696;4.396;2023-07-13T03:02:42;15.30;99.90
23100;DHT22;53791;50.696;4.396;2023-07-13T03:05:10;15.20;99.90
23100;DHT22;53791;50.696;4.396;2023-07-13T03:07:39;15.20;99.90
23100;DHT22;53791;50.696;4.396;2023-07-13T03:10:07;15.30;99.90
23100;DHT22;53791;50.696;4.396;2023-07-13T03:12:35;15.30;99.90
23100;DHT22;53791;50.696;4.396;2023-07-13T03:15:03;15.30;99.90
23100;DHT22;53791;50.696;4.396;2023-07-13T03:17:31;15.30;99.90
23100;DHT22;53791;50.696;4.396;2023-07-13T03:19:58;15.20;99.90
23100;DHT22;53791;50.696;4.396;2023-07-13T03:22:26;15.30;99.90
23100;DHT22;53791;50.696;4.396;2023-07-13T03:24:55;15.30;99.90
23100;DHT22;53791;50.696;4.396;2023-07-13T03:27:23;15.30;99.90
23100;DHT22;53791;50.696;4.396;2023-07-13T03:29:50;15.30;99.90
23100;DHT22;53791;50.696;4.396;2023-07-13T03:32:17;15.30;99.90
23100;DHT22;53791;50.696;4.396;2023-07-13T03:34:45;15.30;99.90
23100;DHT22;53791;50.696;4.396;2023-07-13T03:37:12;15.40;99.90
23100;DHT22;53791;50.696;4.396;2023-07-13T03:39:40;15.40;99.90
23100;DHT22;53791;50.696;4.396;2023-07-13T03:42:08;15.40;99.90
23100;DHT22;53791;50.696;4.396;2023-07-13T03:44:36;15.40;99.90
23100;DHT22;53791;50.696;4.396;2023-07-13T03:47:04;15.50;99.90
23100;DHT22;53791;50.696;4.396;2023-07-13T03:49:32;15.50;99.90
23100;DHT22;53791;50.696;4.396;2023-07-13T03:52:00;15.60;99.90
23100;DHT22;53791;50.696;4.396;2023-07-13T03:54:27;15.60;99.90
23100;DHT22;53791;50.696;4.396;2023-07-13T03:56:55;15.70;99.90
23100;DHT22;53791;50.696;4.396;2023-07-13T03:59:23;15.60;99.90
23100;DHT22;53791;50.696;4.396;2023-07-13T04:01:50;15.60;99.90
23100;DHT22;53791;50.696;4.396;2023-07-13T04:04:18;15.60;99.90
23100;DHT22;53791;50.696;4.396;2023-07-13T04:06:45;15.60;99.90
23100;DHT22;53791;50.696;4.396;2023-07-13T04:09:13;15.60;99.90
23100;DHT22;53791;50.696;4.396;2023-07-13T04:11:40;15.80;99.90
23100;DHT22;53791;50.696;4.396;2023-07-13T04:14:08;15.70;99.90
23100;DHT22;53791;50.696;4.396;2023-07-13T04:16:35;15.70;99.90
23100;DHT22;53791;50.696;4.396;2023-07-13T04:19:03;15.70;99.90
23100;DHT22;53791;50.696;4.396;2023-07-13T04:21:31;15.70;99.90
23100;DHT22;53791;50.696;4.396;2023-07-13T04:23:59;15.70;99.90
23100;DHT22;53791;50.696;4.396;2023-07-13T04:26:26;15.70;99.90
23100;DHT22;53791;50.696;4.396;2023-07-13T04:28:54;15.70;99.90
23100;DHT22;53791;50.696;4.396;2023-07-13T04:31:22;15.70;99.90
23100;DHT22;53791;50.696;4.396;2023-07-13T04:33:50;15.80;99.90
23100;DHT22;53791;50.696;4.396;2023-07-13T04:36:18;15.80;99.90
23100;DHT22;53791;50.696;4.396;2023-07-13T04:38:45;15.80;99.90
23100;DHT22;53791;50.696;4.396;2023-07-13T04:41:14;15.70;99.90
23100;DHT22;53791;50.696;4.396;2023-07-13T04:43:42;15.70;99.90
23100;DHT22;53791;50.696;4.396;2023-07-13T04:46:12;15.70;99.90
23100;DHT22;53791;50.696;4.396;2023-07-13T04:48:40;15.80;99.90
23100;DHT22;53791;50.696;4.396;2023-07-13T04:51:08;15.90;99.90
23100;DHT22;53791;50.696;4.396;2023-07-13T04:53:35;15.80;99.90
23100;DHT22;53791;50.696;4.396;2023-07-13T04:56:04;15.80;99.90
23100;DHT22;53791;50.696;4.396;2023-07-13T04:58:32;15.80;99.90
23100;DHT22;53791;50.696;4.396;2023-07-13T05:01:03;15.80;99.90
23100;DHT22;53791;50.696;4.396;2023-07-13T05:03:30;15.80;99.90
23100;DHT22;53791;50.696;4.396;2023-07-13T05:06:02;15.80;99.90
23100;DHT22;53791;50.696;4.396;2023-07-13T05:08:29;15.80;99.90
23100;DHT22;53791;50.696;4.396;2023-07-13T05:10:59;15.90;99.90
23100;DHT22;53791;50.696;4.396;2023-07-13T05:13:26;15.90;99.90
23100;DHT22;53791;50.696;4.396;2023-07-13T05:15:59;15.80;99.90
23100;DHT22;53791;50.696;4.396;2023-07-13T05:18:27;15.90;99.90
23100;DHT22;53791;50.696;4.396;2023-07-13T05:21:00;15.90;99.90
23100;DHT22;53791;50.696;4.396;2023-07-13T05:23:28;16.00;99.90
23100;DHT22;53791;50.696;4.396;2023-07-13T05:25:56;16.00;99.90
23100;DHT22;53791;50.696;4.396;2023-07-13T05:28:24;16.00;99.90
23100;DHT22;53791;50.696;4.396;2023-07-13T05:30:52;16.10;99.90
23100;DHT22;53791;50.696;4.396;2023-07-13T05:33:20;16.30;99.90
23100;DHT22;53791;50.696;4.396;2023-07-13T05:35:48;16.30;99.90
23100;DHT22;53791;50.696;4.396;2023-07-13T05:38:16;16.40;99.90
23100;DHT22;53791;50.696;4.396;2023-07-13T05:40:47;16.50;99.90
23100;DHT22;53791;50.696;4.396;2023-07-13T05:43:14;16.50;99.90
23100;DHT22;53791;50.696;4.396;2023-07-13T05:45:42;16.50;99.90
23100;DHT22;53791;50.696;4.396;2023-07-13T05:48:09;16.40;99.90
23100;DHT22;53791;50.696;4.396;2023-07-13T05:50:37;16.40;99.90
23100;DHT22;53791;50.696;4.396;2023-07-13T05:53:04;16.40;99.90
23100;DHT22;53791;50.696;4.396;2023-07-13T05:55:32;16.40;99.90
23100;DHT22;53791;50.696;4.396;2023-07-13T05:58:01;16.50;99.90
23100;DHT22;53791;50.696;4.396;2023-07-13T06:00:28;16.40;99.90
23100;DHT22;53791;50.696;4.396;2023-07-13T06:02:56;16.40;99.90
23100;DHT22;53791;50.696;4.396;2023-07-13T06:05:25;16.40;99.90
23100;DHT22;53791;50.696;4.396;2023-07-13T06:07:53;16.60;99.90
23100;DHT22;53791;50.696;4.396;2023-07-13T06:10:21;16.70;99.90
23100;DHT22;53791;50.696;4.396;2023-07-13T06:12:49;16.70;99.90
23100;DHT22;53791;50.696;4.396;2023-07-13T06:15:16;16.80;99.90
23100;DHT22;53791;50.696;4.396;2023-07-13T06:17:44;16.90;99.90
23100;DHT22;53791;50.696;4.396;2023-07-13T06:20:11;17.00;99.90
23100;DHT22;53791;50.696;4.396;2023-07-13T06:22:39;17.00;99.90
23100;DHT22;53791;50.696;4.396;2023-07-13T06:25:07;17.00;99.90
23100;DHT22;53791;50.696;4.396;2023-07-13T06:27:35;17.10;99.90
23100;DHT22;53791;50.696;4.396;2023-07-13T06:30:02;17.10;99.90
23100;DHT22;53791;50.696;4.396;2023-07-13T06:32:30;17.10;99.90
23100;DHT22;53791;50.696;4.396;2023-07-13T06:34:58;17.30;99.90
23100;DHT22;53791;50.696;4.396;2023-07-13T06:37:25;17.20;99.90
23100;DHT22;53791;50.696;4.396;2023-07-13T06:39:53;17.20;99.90
23100;DHT22;53791;50.696;4.396;2023-07-13T06:42:20;17.30;99.90
23100;DHT22;53791;50.696;4.396;2023-07-13T06:44:48;17.30;99.90
23100;DHT22;53791;50.696;4.396;2023-07-13T06:47:15;17.40;99.90
23100;DHT22;53791;50.696;4.396;2023-07-13T06:49:43;17.50;99.90
23100;DHT22;53791;50.696;4.396;2023-07-13T06:52:10;17.60;99.90
23100;DHT22;53791;50.696;4.396;2023-07-13T06:54:38;17.50;99.90
23100;DHT22;53791;50.696;4.396;2023-07-13T06:57:05;17.50;99.90
23100;DHT22;53791;50.696;4.396;2023-07-13T06:59:33;17.50;99.90
23100;DHT22;53791;50.696;4.396;2023-07-13T07:02:01;17.40;99.90
23100;DHT22;53791;50.696;4.396;2023-07-13T07:04:28;17.50;99.90
23100;DHT22;53791;50.696;4.396;2023-07-13T07:06:56;17.50;99.90
23100;DHT22;53791;50.696;4.396;2023-07-13T07:09:23;17.60;99.90
23100;DHT22;53791;50.696;4.396;2023-07-13T07:11:51;17.70;99.90
23100;DHT22;53791;50.696;4.396;2023-07-13T07:14:18;17.80;99.90
23100;DHT22;53791;50.696;4.396;2023-07-13T07:16:46;17.90;99.90
23100;DHT22;53791;50.696;4.396;2023-07-13T07:19:13;18.00;99.90
23100;DHT22;53791;50.696;4.396;2023-07-13T07:21:41;18.00;99.90
23100;DHT22;53791;50.696;4.396;2023-07-13T07:24:08;18.10;99.90
23100;DHT22;53791;50.696;4.396;2023-07-13T07:26:36;18.10;99.90
23100;DHT22;53791;50.696;4.396;2023-07-13T07:29:03;18.20;99.90
23100;DHT22;53791;50.696;4.396;2023-07-13T07:31:31;18.00;99.90
23100;DHT22;53791;50.696;4.396;2023-07-13T07:33:58;18.00;99.90
23100;DHT22;53791;50.696;4.396;2023-07-13T07:36:26;18.00;99.90
23100;DHT22;53791;50.696;4.396;2023-07-13T07:38:54;18.00;99.90
23100;DHT22;53791;50.696;4.396;2023-07-13T07:41:21;18.10;99.90
23100;DHT22;53791;50.696;4.396;2023-07-13T07:43:49;18.20;99.90
23100;DHT22;53791;50.696;4.396;2023-07-13T07:46:16;18.10;99.90
23100;DHT22;53791;50.696;4.396;2023-07-13T07:48:44;18.20;99.90
23100;DHT22;53791;50.696;4.396;2023-07-13T07:51:11;18.20;99.90
23100;DHT22;53791;50.696;4.396;2023-07-13T07:53:39;18.40;99.90
23100;DHT22;53791;50.696;4.396;2023-07-13T07:56:06;18.30;99.90
23100;DHT22;53791;50.696;4.396;2023-07-13T07:58:34;18.20;99.90
23100;DHT22;53791;50.696;4.396;2023-07-13T08:01:03;18.20;99.90
23100;DHT22;53791;50.696;4.396;2023-07-13T08:03:31;18.40;99.90
23100;DHT22;53791;50.696;4.396;2023-07-13T08:05:59;18.50;99.90
23100;DHT22;53791;50.696;4.396;2023-07-13T08:08:26;18.50;99.90
23100;DHT22;53791;50.696;4.396;2023-07-13T08:10:54;18.30;99.90
23100;DHT22;53791;50.696;4.396;2023-07-13T08:13:21;18.30;99.90
23100;DHT22;53791;50.696;4.396;2023-07-13T08:15:49;18.40;99.90
23100;DHT22;53791;50.696;4.396;2023-07-13T08:18:16;18.50;99.90
23100;DHT22;53791;50.696;4.396;2023-07-13T08:20:44;18.80;99.90
23100;DHT22;53791;50.696;4.396;2023-07-13T08:23:12;18.90;99.90
23100;DHT22;53791;50.696;4.396;2023-07-13T08:25:39;19.10;99.90
23100;DHT22;53791;50.696;4.396;2023-07-13T08:28:07;19.10;99.90
23100;DHT22;53791;50.696;4.396;2023-07-13T08:30:34;19.10;99.90
23100;DHT22;53791;50.696;4.396;2023-07-13T08:33:02;19.30;99.90
23100;DHT22;53791;50.696;4.396;2023-07-13T08:35:30;19.10;99.90
23100;DHT22;53791;50.696;4.396;2023-07-13T08:37:58;19.10;99.90
23100;DHT22;53791;50.696;4.396;2023-07-13T08:40:27;19.20;99.90
23100;DHT22;53791;50.696;4.396;2023-07-13T08:42:57;19.20;99.90
23100;DHT22;53791;50.696;4.396;2023-07-13T08:45:46;19.30;99.90
23100;DHT22;53791;50.696;4.396;2023-07-13T08:50:58;19.40;99.90
23100;DHT22;53791;50.696;4.396;2023-07-13T08:53:17;19.40;99.90
23100;DHT22;53791;50.696;4.396;2023-07-13T08:55:46;19.70;99.90
23100;DHT22;53791;50.696;4.396;2023-07-13T08:58:15;19.70;99.90
23100;DHT22;53791;50.696;4.396;2023-07-13T09:01:02;19.80;99.90
23100;DHT22;53791;50.696;4.396;2023-07-13T09:03:30;19.80;99.90
23100;DHT22;53791;50.696;4.396;2023-07-13T09:05:59;19.80;99.90
23100;DHT22;53791;50.696;4.396;2023-07-13T09:11:31;20.20;99.90
23100;DHT22;53791;50.696;4.396;2023-07-13T09:13:57;20.40;99.90
23100;DHT22;53791;50.696;4.396;2023-07-13T09:16:23;20.40;99.90
23100;DHT22;53791;50.696;4.396;2023-07-13T09:18:54;20.60;99.90
23100;DHT22;53791;50.696;4.396;2023-07-13T09:21:31;20.70;99.90
23100;DHT22;53791;50.696;4.396;2023-07-13T09:23:59;20.80;99.90
23100;DHT22;53791;50.696;4.396;2023-07-13T09:26:28;20.90;99.90
23100;DHT22;53791;50.696;4.396;2023-07-13T09:29:03;21.00;99.90
23100;DHT22;53791;50.696;4.396;2023-07-13T09:31:30;21.10;99.90
23100;DHT22;53791;50.696;4.396;2023-07-13T09:33:57;21.20;99.90
23100;DHT22;53791;50.696;4.396;2023-07-13T09:36:34;21.30;99.90
23100;DHT22;53791;50.696;4.396;2023-07-13T09:41:47;21.60;99.90
23100;DHT22;53791;50.696;4.396;2023-07-13T09:44:13;21.70;99.90
23100;DHT22;53791;50.696;4.396;2023-07-13T09:46:53;22.10;99.90
23100;DHT22;53791;50.696;4.396;2023-07-13T09:49:28;22.30;99.90
23100;DHT22;53791;50.696;4.396;2023-07-13T09:52:07;22.50;99.90
23100;DHT22;53791;50.696;4.396;2023-07-13T09:54:34;22.40;99.90
23100;DHT22;53791;50.696;4.396;2023-07-13T09:57:08;21.80;99.90
23100;DHT22;53791;50.696;4.396;2023-07-13T09:59:35;21.70;99.90
23100;DHT22;53791;50.696;4.396;2023-07-13T10:02:22;21.50;99.90
23100;DHT22;53791;50.696;4.396;2023-07-13T10:04:34;21.80;99.90
23100;DHT22;53791;50.696;4.396;2023-07-13T10:07:06;21.70;99.90
23100;DHT22;53791;50.696;4.396;2023-07-13T10:09:34;21.50;99.90
23100;DHT22;53791;50.696;4.396;2023-07-13T10:12:02;21.30;99.90
23100;DHT22;53791;50.696;4.396;2023-07-13T10:14:30;21.20;99.90
23100;DHT22;53791;50.696;4.396;2023-07-13T10:17:00;21.10;99.90
23100;DHT22;53791;50.696;4.396;2023-07-13T10:19:31;21.10;99.90
23100;DHT22;53791;50.696;4.396;2023-07-13T10:22:01;21.10;99.90
23100;DHT22;53791;50.696;4.396;2023-07-13T10:24:32;21.10;99.90
23100;DHT22;53791;50.696;4.396;2023-07-13T10:27:18;21.10;99.90
23100;DHT22;53791;50.696;4.396;2023-07-13T10:32:24;21.00;99.90
23100;DHT22;53791;50.696;4.396;2023-07-13T10:34:52;21.20;99.90
23100;DHT22;53791;50.696;4.396;2023-07-13T10:37:23;21.40;99.90
23100;DHT22;53791;50.696;4.396;2023-07-13T10:39:56;21.40;99.90
23100;DHT22;53791;50.696;4.396;2023-07-13T10:42:39;21.60;99.90
23100;DHT22;53791;50.696;4.396;2023-07-13T10:45:22;21.80;99.90
23100;DHT22;53791;50.696;4.396;2023-07-13T10:47:52;22.00;99.90
23100;DHT22;53791;50.696;4.396;2023-07-13T10:50:23;22.20;99.90
23100;DHT22;53791;50.696;4.396;2023-07-13T10:52:55;22.40;99.90
23100;DHT22;53791;50.696;4.396;2023-07-13T10:55:38;22.50;99.90
23100;DHT22;53791;50.696;4.396;2023-07-13T10:58:14;22.50;99.90
23100;DHT22;53791;50.696;4.396;2023-07-13T11:03:21;22.80;99.90
23100;DHT22;53791;50.696;4.396;2023-07-13T11:05:51;23.00;99.90
23100;DHT22;53791;50.696;4.396;2023-07-13T11:08:34;22.80;99.90
23100;DHT22;53791;50.696;4.396;2023-07-13T11:11:52;23.00;99.90
23100;DHT22;53791;50.696;4.396;2023-07-13T11:16:44;23.20;99.90
23100;DHT22;53791;50.696;4.396;2023-07-13T11:21:25;23.00;99.90
23100;DHT22;53791;50.696;4.396;2023-07-13T11:24:00;23.00;99.90
23100;DHT22;53791;50.696;4.396;2023-07-13T11:26:51;22.50;99.90
23100;DHT22;53791;50.696;4.396;2023-07-13T11:31:54;21.70;99.90
23100;DHT22;53791;50.696;4.396;2023-07-13T11:34:28;21.70;99.90
23100;DHT22;53791;50.696;4.396;2023-07-13T11:36:53;21.90;99.90
23100;DHT22;53791;50.696;4.396;2023-07-13T11:39:30;22.20;99.90
23100;DHT22;53791;50.696;4.396;2023-07-13T11:41:56;22.50;99.90
23100;DHT22;53791;50.696;4.396;2023-07-13T11:44:26;23.00;99.90
23100;DHT22;53791;50.696;4.396;2023-07-13T11:46:57;23.20;99.90
23100;DHT22;53791;50.696;4.396;2023-07-13T11:49:29;23.30;99.90
23100;DHT22;53791;50.696;4.396;2023-07-13T11:51:57;23.40;99.90
23100;DHT22;53791;50.696;4.396;2023-07-13T11:54:30;23.50;99.90
23100;DHT22;53791;50.696;4.396;2023-07-13T11:57:10;23.20;99.90
23100;DHT22;53791;50.696;4.396;2023-07-13T11:59:38;22.80;99.90
23100;DHT22;53791;50.696;4.396;2023-07-13T12:02:08;22.80;99.90
23100;DHT22;53791;50.696;4.396;2023-07-13T12:04:36;22.70;99.90
23100;DHT22;53791;50.696;4.396;2023-07-13T12:07:16;22.50;99.90
23100;DHT22;53791;50.696;4.396;2023-07-13T12:09:36;22.30;99.90
23100;DHT22;53791;50.696;4.396;2023-07-13T12:12:10;22.10;99.90
23100;DHT22;53791;50.696;4.396;2023-07-13T12:14:37;22.00;99.90
23100;DHT22;53791;50.696;4.396;2023-07-13T12:17:22;22.00;99.90
23100;DHT22;53791;50.696;4.396;2023-07-13T12:19:51;22.30;99.90
23100;DHT22;53791;50.696;4.396;2023-07-13T12:22:20;22.30;99.90
23100;DHT22;53791;50.696;4.396;2023-07-13T12:24:49;22.10;99.90
23100;DHT22;53791;50.696;4.396;2023-07-13T12:27:23;22.20;99.90
23100;DHT22;53791;50.696;4.396;2023-07-13T12:29:58;22.10;99.90
23100;DHT22;53791;50.696;4.396;2023-07-13T12:32:21;21.90;99.90
23100;DHT22;53791;50.696;4.396;2023-07-13T12:34:56;21.90;99.90
23100;DHT22;53791;50.696;4.396;2023-07-13T12:37:24;22.00;99.90
23100;DHT22;53791;50.696;4.396;2023-07-13T12:39:52;22.10;99.90
23100;DHT22;53791;50.696;4.396;2023-07-13T12:42:33;22.10;99.90
23100;DHT22;53791;50.696;4.396;2023-07-13T12:45:24;21.70;99.90
23100;DHT22;53791;50.696;4.396;2023-07-13T12:47:44;21.20;99.90
23100;DHT22;53791;50.696;4.396;2023-07-13T12:50:18;21.20;99.90
23100;DHT22;53791;50.696;4.396;2023-07-13T12:52:56;21.20;99.90
23100;DHT22;53791;50.696;4.396;2023-07-13T12:55:20;21.30;99.90
23100;DHT22;53791;50.696;4.396;2023-07-13T12:57:50;21.00;99.90
23100;DHT22;53791;50.696;4.396;2023-07-13T13:00:32;21.30;99.90
23100;DHT22;53791;50.696;4.396;2023-07-13T13:03:05;21.50;99.90
23100;DHT22;53791;50.696;4.396;2023-07-13T13:05:34;21.40;99.90
23100;DHT22;53791;50.696;4.396;2023-07-13T13:08:03;21.60;99.90
23100;DHT22;53791;50.696;4.396;2023-07-13T13:10:31;21.80;99.90
23100;DHT22;53791;50.696;4.396;2023-07-13T13:12:58;22.00;99.90
23100;DHT22;53791;50.696;4.396;2023-07-13T13:15:26;22.40;99.90
23100;DHT22;53791;50.696;4.396;2023-07-13T13:17:54;22.60;99.90
23100;DHT22;53791;50.696;4.396;2023-07-13T13:20:22;22.70;99.90
23100;DHT22;53791;50.696;4.396;2023-07-13T13:22:49;22.60;99.90
23100;DHT22;53791;50.696;4.396;2023-07-13T13:25:21;22.20;99.90
23100;DHT22;53791;50.696;4.396;2023-07-13T13:27:47;22.30;99.90
23100;DHT22;53791;50.696;4.396;2023-07-13T13:30:17;22.40;99.90
23100;DHT22;53791;50.696;4.396;2023-07-13T13:32:47;22.50;99.90
23100;DHT22;53791;50.696;4.396;2023-07-13T13:35:16;22.50;99.90
23100;DHT22;53791;50.696;4.396;2023-07-13T13:37:44;22.10;99.90
23100;DHT22;53791;50.696;4.396;2023-07-13T13:40:18;22.00;99.90
23100;DHT22;53791;50.696;4.396;2023-07-13T13:42:45;21.50;99.90
23100;DHT22;53791;50.696;4.396;2023-07-13T13:45:13;21.40;99.90
23100;DHT22;53791;50.696;4.396;2023-07-13T13:47:42;21.40;99.90
23100;DHT22;53791;50.696;4.396;2023-07-13T13:50:12;21.50;99.90
23100;DHT22;53791;50.696;4.396;2023-07-13T13:52:42;21.50;99.90
23100;DHT22;53791;50.696;4.396;2023-07-13T13:55:13;21.60;99.90
23100;DHT22;53791;50.696;4.396;2023-07-13T13:57:41;21.50;99.90
23100;DHT22;53791;50.696;4.396;2023-07-13T14:00:10;21.60;99.90
23100;DHT22;53791;50.696;4.396;2023-07-13T14:02:44;21.90;99.90
23100;DHT22;53791;50.696;4.396;2023-07-13T14:05:15;22.20;99.90
23100;DHT22;53791;50.696;4.396;2023-07-13T14:07:49;22.40;99.90
23100;DHT22;53791;50.696;4.396;2023-07-13T14:10:16;22.50;99.90
23100;DHT22;53791;50.696;4.396;2023-07-13T14:12:46;22.60;99.90
23100;DHT22;53791;50.696;4.396;2023-07-13T14:15:28;22.50;99.90
23100;DHT22;53791;50.696;4.396;2023-07-13T14:17:58;22.70;99.90
23100;DHT22;53791;50.696;4.396;2023-07-13T14:20:26;22.60;99.90
23100;DHT22;53791;50.696;4.396;2023-07-13T14:22:53;22.50;99.90
23100;DHT22;53791;50.696;4.396;2023-07-13T14:25:21;22.40;99.90
23100;DHT22;53791;50.696;4.396;2023-07-13T14:27:55;21.90;99.90
23100;DHT22;53791;50.696;4.396;2023-07-13T14:30:21;21.80;99.90
23100;DHT22;53791;50.696;4.396;2023-07-13T14:32:49;21.90;99.90
23100;DHT22;53791;50.696;4.396;2023-07-13T14:35:21;21.80;99.90
23100;DHT22;53791;50.696;4.396;2023-07-13T14:37:47;21.80;99.90
23100;DHT22;53791;50.696;4.396;2023-07-13T14:40:24;21.60;99.90
23100;DHT22;53791;50.696;4.396;2023-07-13T14:42:47;21.70;99.90
23100;DHT22;53791;50.696;4.396;2023-07-13T14:45:17;21.70;99.90
23100;DHT22;53791;50.696;4.396;2023-07-13T14:47:45;21.80;99.90
23100;DHT22;53791;50.696;4.396;2023-07-13T14:50:18;21.90;99.90
23100;DHT22;53791;50.696;4.396;2023-07-13T14:52:47;21.90;99.90
23100;DHT22;53791;50.696;4.396;2023-07-13T14:55:17;21.90;99.90
23100;DHT22;53791;50.696;4.396;2023-07-13T14:57:46;22.00;99.90
23100;DHT22;53791;50.696;4.396;2023-07-13T15:00:14;22.00;99.90
23100;DHT22;53791;50.696;4.396;2023-07-13T15:02:45;21.90;99.90
23100;DHT22;53791;50.696;4.396;2023-07-13T15:05:19;21.90;99.90
23100;DHT22;53791;50.696;4.396;2023-07-13T15:07:48;21.80;99.90
23100;DHT22;53791;50.696;4.396;2023-07-13T15:10:18;21.80;99.90
23100;DHT22;53791;50.696;4.396;2023-07-13T15:12:46;21.80;99.90
23100;DHT22;53791;50.696;4.396;2023-07-13T15:15:14;21.80;99.90
23100;DHT22;53791;50.696;4.396;2023-07-13T15:17:47;21.80;99.90
23100;DHT22;53791;50.696;4.396;2023-07-13T15:22:48;22.10;99.90
23100;DHT22;53791;50.696;4.396;2023-07-13T15:25:18;22.40;99.90
23100;DHT22;53791;50.696;4.396;2023-07-13T15:27:46;22.70;99.90
23100;DHT22;53791;50.696;4.396;2023-07-13T15:30:14;23.00;99.90
23100;DHT22;53791;50.696;4.396;2023-07-13T15:32:43;23.30;99.90
23100;DHT22;53791;50.696;4.396;2023-07-13T15:35:19;23.50;99.90
23100;DHT22;53791;50.696;4.396;2023-07-13T15:37:47;23.60;99.90
23100;DHT22;53791;50.696;4.396;2023-07-13T15:40:16;23.80;99.90
23100;DHT22;53791;50.696;4.396;2023-07-13T15:42:46;23.70;99.90
23100;DHT22;53791;50.696;4.396;2023-07-13T15:45:23;23.60;99.90
23100;DHT22;53791;50.696;4.396;2023-07-13T15:47:51;23.60;99.90
23100;DHT22;53791;50.696;4.396;2023-07-13T15:50:22;23.50;99.90
23100;DHT22;53791;50.696;4.396;2023-07-13T15:52:52;23.20;99.90
23100;DHT22;53791;50.696;4.396;2023-07-13T15:55:21;23.10;99.90
23100;DHT22;53791;50.696;4.396;2023-07-13T15:57:51;22.90;99.90
23100;DHT22;53791;50.696;4.396;2023-07-13T16:00:23;22.80;99.90
23100;DHT22;53791;50.696;4.396;2023-07-13T16:02:52;22.70;99.90
23100;DHT22;53791;50.696;4.396;2023-07-13T16:05:21;22.70;99.90
23100;DHT22;53791;50.696;4.396;2023-07-13T16:07:51;22.60;99.90